Terminal Aerodrome Forecast
Issued by NWS Glasgow, MT

Home | Current Version | Previous Version | Text Only | Print | Product List | Glossary On
Versions: 1 2 3 4 5 6 7 8 9 10 11 12 13 14
000
FTUS45 KGGW 041100
TAFGGW
TAF
KGGW 041132Z 0412/0512 11013KT P6SM SCT150
     FM041800 13014KT P6SM BKN090
     FM042100 12014KT 5SM TSRA BKN040CB
     FM050000 27010KT P6SM VCSH SCT070 OVC090
     FM050600 VRB05KT P6SM SCT090=

USA.gov is the U.S. government's official web portal to all federal, state and local government web resources and services.